sensor_id;sensor_type;location;lat;lon;timestamp;P1;durP1;ratioP1;P2;durP2;ratioP2
28028;SDS011;15345;59.364;18.016;2023-05-09T00:00:55;3.38;;;2.00;;
28028;SDS011;15345;59.364;18.016;2023-05-09T00:02:14;3.05;;;1.92;;
28028;SDS011;15345;59.364;18.016;2023-05-09T00:03:33;4.50;;;2.20;;
28028;SDS011;15345;59.364;18.016;2023-05-09T00:04:52;3.80;;;2.03;;
28028;SDS011;15345;59.364;18.016;2023-05-09T00:06:11;3.95;;;1.95;;
28028;SDS011;15345;59.364;18.016;2023-05-09T00:07:30;4.25;;;2.15;;
28028;SDS011;15345;59.364;18.016;2023-05-09T00:08:49;5.05;;;2.20;;
28028;SDS011;15345;59.364;18.016;2023-05-09T00:10:09;7.95;;;2.30;;
28028;SDS011;15345;59.364;18.016;2023-05-09T00:11:28;3.20;;;2.10;;
28028;SDS011;15345;59.364;18.016;2023-05-09T00:12:46;6.03;;;2.25;;
28028;SDS011;15345;59.364;18.016;2023-05-09T00:14:07;4.75;;;2.08;;
28028;SDS011;15345;59.364;18.016;2023-05-09T00:15:26;2.55;;;2.35;;
28028;SDS011;15345;59.364;18.016;2023-05-09T00:16:46;7.22;;;2.53;;
28028;SDS011;15345;59.364;18.016;2023-05-09T00:18:05;3.17;;;2.20;;
28028;SDS011;15345;59.364;18.016;2023-05-09T00:19:24;3.30;;;1.95;;
28028;SDS011;15345;59.364;18.016;2023-05-09T00:20:43;4.53;;;2.30;;
28028;SDS011;15345;59.364;18.016;2023-05-09T00:22:02;2.22;;;2.00;;
28028;SDS011;15345;59.364;18.016;2023-05-09T00:23:21;4.32;;;2.58;;
28028;SDS011;15345;59.364;18.016;2023-05-09T00:24:39;4.72;;;2.08;;
28028;SDS011;15345;59.364;18.016;2023-05-09T00:25:58;5.45;;;2.17;;
28028;SDS011;15345;59.364;18.016;2023-05-09T00:27:18;5.22;;;2.30;;
28028;SDS011;15345;59.364;18.016;2023-05-09T00:28:37;6.97;;;3.50;;
28028;SDS011;15345;59.364;18.016;2023-05-09T00:29:56;6.10;;;3.55;;
28028;SDS011;15345;59.364;18.016;2023-05-09T00:31:15;6.15;;;3.17;;
28028;SDS011;15345;59.364;18.016;2023-05-09T00:32:34;9.50;;;3.10;;
28028;SDS011;15345;59.364;18.016;2023-05-09T00:33:53;4.45;;;2.13;;
28028;SDS011;15345;59.364;18.016;2023-05-09T00:35:12;3.25;;;2.13;;
28028;SDS011;15345;59.364;18.016;2023-05-09T00:36:31;5.55;;;2.53;;
28028;SDS011;15345;59.364;18.016;2023-05-09T00:37:50;5.75;;;2.88;;
28028;SDS011;15345;59.364;18.016;2023-05-09T00:39:09;4.50;;;2.75;;
28028;SDS011;15345;59.364;18.016;2023-05-09T00:40:28;9.52;;;2.53;;
28028;SDS011;15345;59.364;18.016;2023-05-09T00:41:47;5.07;;;2.58;;
28028;SDS011;15345;59.364;18.016;2023-05-09T00:43:06;4.43;;;2.38;;
28028;SDS011;15345;59.364;18.016;2023-05-09T00:44:24;5.93;;;2.35;;
28028;SDS011;15345;59.364;18.016;2023-05-09T00:45:43;10.50;;;2.67;;
28028;SDS011;15345;59.364;18.016;2023-05-09T00:47:03;4.05;;;2.38;;
28028;SDS011;15345;59.364;18.016;2023-05-09T00:48:22;3.53;;;2.22;;
28028;SDS011;15345;59.364;18.016;2023-05-09T00:49:40;9.73;;;2.47;;
28028;SDS011;15345;59.364;18.016;2023-05-09T00:50:59;5.35;;;2.50;;
28028;SDS011;15345;59.364;18.016;2023-05-09T00:52:19;5.20;;;2.45;;
28028;SDS011;15345;59.364;18.016;2023-05-09T00:53:40;7.18;;;2.30;;
28028;SDS011;15345;59.364;18.016;2023-05-09T00:55:00;4.30;;;2.50;;
28028;SDS011;15345;59.364;18.016;2023-05-09T00:56:19;5.15;;;2.70;;
28028;SDS011;15345;59.364;18.016;2023-05-09T00:57:39;7.85;;;2.63;;
28028;SDS011;15345;59.364;18.016;2023-05-09T00:58:58;8.38;;;2.70;;
28028;SDS011;15345;59.364;18.016;2023-05-09T01:00:17;6.95;;;2.45;;
28028;SDS011;15345;59.364;18.016;2023-05-09T01:01:36;3.13;;;2.40;;
28028;SDS011;15345;59.364;18.016;2023-05-09T01:02:55;4.78;;;2.13;;
28028;SDS011;15345;59.364;18.016;2023-05-09T01:04:14;4.70;;;2.10;;
28028;SDS011;15345;59.364;18.016;2023-05-09T01:05:53;2.35;;;1.98;;
28028;SDS011;15345;59.364;18.016;2023-05-09T01:10:19;4.03;;;2.38;;
28028;SDS011;15345;59.364;18.016;2023-05-09T01:11:44;4.47;;;2.50;;
28028;SDS011;15345;59.364;18.016;2023-05-09T01:16:18;4.10;;;2.25;;
28028;SDS011;15345;59.364;18.016;2023-05-09T01:17:45;6.50;;;2.30;;
28028;SDS011;15345;59.364;18.016;2023-05-09T01:19:17;3.20;;;2.45;;
28028;SDS011;15345;59.364;18.016;2023-05-09T01:20:42;3.95;;;2.25;;
28028;SDS011;15345;59.364;18.016;2023-05-09T01:22:05;6.22;;;2.30;;
28028;SDS011;15345;59.364;18.016;2023-05-09T01:28:04;3.63;;;2.25;;
28028;SDS011;15345;59.364;18.016;2023-05-09T01:30:50;3.60;;;2.53;;
28028;SDS011;15345;59.364;18.016;2023-05-09T01:32:12;2.83;;;2.50;;
28028;SDS011;15345;59.364;18.016;2023-05-09T01:33:33;3.30;;;2.10;;
28028;SDS011;15345;59.364;18.016;2023-05-09T01:34:54;6.88;;;2.22;;
28028;SDS011;15345;59.364;18.016;2023-05-09T01:36:16;8.80;;;2.55;;
28028;SDS011;15345;59.364;18.016;2023-05-09T01:37:38;2.65;;;1.80;;
28028;SDS011;15345;59.364;18.016;2023-05-09T01:38:58;4.43;;;2.35;;
28028;SDS011;15345;59.364;18.016;2023-05-09T01:40:18;5.25;;;2.10;;
28028;SDS011;15345;59.364;18.016;2023-05-09T01:41:38;6.45;;;2.65;;
28028;SDS011;15345;59.364;18.016;2023-05-09T01:43:02;2.60;;;2.38;;
28028;SDS011;15345;59.364;18.016;2023-05-09T01:44:21;8.05;;;2.55;;
28028;SDS011;15345;59.364;18.016;2023-05-09T01:45:41;4.38;;;2.58;;
28028;SDS011;15345;59.364;18.016;2023-05-09T01:47:00;4.53;;;2.65;;
28028;SDS011;15345;59.364;18.016;2023-05-09T01:48:20;4.25;;;3.30;;
28028;SDS011;15345;59.364;18.016;2023-05-09T01:49:43;4.18;;;2.28;;
28028;SDS011;15345;59.364;18.016;2023-05-09T01:51:04;6.60;;;2.30;;
28028;SDS011;15345;59.364;18.016;2023-05-09T01:52:23;10.80;;;2.63;;
28028;SDS011;15345;59.364;18.016;2023-05-09T01:53:43;2.85;;;2.30;;
28028;SDS011;15345;59.364;18.016;2023-05-09T01:55:03;7.03;;;2.78;;
28028;SDS011;15345;59.364;18.016;2023-05-09T01:56:22;4.75;;;2.95;;
28028;SDS011;15345;59.364;18.016;2023-05-09T01:57:42;4.50;;;2.78;;
28028;SDS011;15345;59.364;18.016;2023-05-09T01:59:01;5.10;;;2.33;;
28028;SDS011;15345;59.364;18.016;2023-05-09T02:00:20;4.05;;;2.40;;
28028;SDS011;15345;59.364;18.016;2023-05-09T02:01:42;5.43;;;2.40;;
28028;SDS011;15345;59.364;18.016;2023-05-09T02:03:01;4.38;;;2.67;;
28028;SDS011;15345;59.364;18.016;2023-05-09T02:04:22;5.95;;;2.63;;
28028;SDS011;15345;59.364;18.016;2023-05-09T02:05:41;6.68;;;2.80;;
28028;SDS011;15345;59.364;18.016;2023-05-09T02:07:01;5.80;;;2.70;;
28028;SDS011;15345;59.364;18.016;2023-05-09T02:08:22;3.72;;;2.50;;
28028;SDS011;15345;59.364;18.016;2023-05-09T02:09:41;6.55;;;3.00;;
28028;SDS011;15345;59.364;18.016;2023-05-09T02:11:00;4.78;;;2.60;;
28028;SDS011;15345;59.364;18.016;2023-05-09T02:12:22;7.82;;;2.67;;
28028;SDS011;15345;59.364;18.016;2023-05-09T02:13:41;3.17;;;2.58;;
28028;SDS011;15345;59.364;18.016;2023-05-09T02:15:00;6.35;;;2.80;;
28028;SDS011;15345;59.364;18.016;2023-05-09T02:16:19;3.13;;;2.38;;
28028;SDS011;15345;59.364;18.016;2023-05-09T02:17:38;9.52;;;2.65;;
28028;SDS011;15345;59.364;18.016;2023-05-09T02:18:57;4.57;;;2.42;;
28028;SDS011;15345;59.364;18.016;2023-05-09T02:20:16;4.15;;;3.03;;
28028;SDS011;15345;59.364;18.016;2023-05-09T02:21:35;3.20;;;2.90;;
28028;SDS011;15345;59.364;18.016;2023-05-09T02:22:54;5.53;;;2.35;;
28028;SDS011;15345;59.364;18.016;2023-05-09T02:24:13;9.02;;;2.80;;
28028;SDS011;15345;59.364;18.016;2023-05-09T02:25:32;8.52;;;2.70;;
28028;SDS011;15345;59.364;18.016;2023-05-09T02:26:52;4.00;;;2.60;;
28028;SDS011;15345;59.364;18.016;2023-05-09T02:28:11;4.25;;;2.70;;
28028;SDS011;15345;59.364;18.016;2023-05-09T02:29:31;4.53;;;2.53;;
28028;SDS011;15345;59.364;18.016;2023-05-09T02:30:58;4.10;;;2.90;;
28028;SDS011;15345;59.364;18.016;2023-05-09T02:32:19;4.15;;;2.78;;
28028;SDS011;15345;59.364;18.016;2023-05-09T02:33:39;4.15;;;2.47;;
28028;SDS011;15345;59.364;18.016;2023-05-09T02:34:59;10.20;;;3.08;;
28028;SDS011;15345;59.364;18.016;2023-05-09T02:36:19;6.40;;;3.20;;
28028;SDS011;15345;59.364;18.016;2023-05-09T02:37:38;4.85;;;2.75;;
28028;SDS011;15345;59.364;18.016;2023-05-09T02:38:57;3.25;;;2.95;;
28028;SDS011;15345;59.364;18.016;2023-05-09T02:40:16;9.82;;;2.83;;
28028;SDS011;15345;59.364;18.016;2023-05-09T02:41:36;5.88;;;3.03;;
28028;SDS011;15345;59.364;18.016;2023-05-09T02:42:55;4.65;;;2.67;;
28028;SDS011;15345;59.364;18.016;2023-05-09T02:44:14;4.32;;;2.80;;
28028;SDS011;15345;59.364;18.016;2023-05-09T02:45:33;5.28;;;2.88;;
28028;SDS011;15345;59.364;18.016;2023-05-09T02:46:52;9.45;;;3.42;;
28028;SDS011;15345;59.364;18.016;2023-05-09T02:48:11;3.83;;;3.10;;
28028;SDS011;15345;59.364;18.016;2023-05-09T02:49:30;3.88;;;2.95;;
28028;SDS011;15345;59.364;18.016;2023-05-09T02:50:49;6.60;;;3.13;;
28028;SDS011;15345;59.364;18.016;2023-05-09T02:52:08;6.75;;;3.25;;
28028;SDS011;15345;59.364;18.016;2023-05-09T02:53:28;4.70;;;3.75;;
28028;SDS011;15345;59.364;18.016;2023-05-09T02:54:47;3.22;;;2.88;;
28028;SDS011;15345;59.364;18.016;2023-05-09T02:56:06;8.23;;;3.15;;
28028;SDS011;15345;59.364;18.016;2023-05-09T02:57:27;6.30;;;3.30;;
28028;SDS011;15345;59.364;18.016;2023-05-09T02:58:46;9.35;;;3.15;;
28028;SDS011;15345;59.364;18.016;2023-05-09T03:00:08;5.78;;;3.38;;
28028;SDS011;15345;59.364;18.016;2023-05-09T03:01:28;6.63;;;3.70;;
28028;SDS011;15345;59.364;18.016;2023-05-09T03:02:47;6.32;;;3.22;;
28028;SDS011;15345;59.364;18.016;2023-05-09T03:04:06;6.05;;;3.22;;
28028;SDS011;15345;59.364;18.016;2023-05-09T03:05:25;5.10;;;3.58;;
28028;SDS011;15345;59.364;18.016;2023-05-09T03:06:44;5.90;;;3.42;;
28028;SDS011;15345;59.364;18.016;2023-05-09T03:08:03;4.10;;;3.35;;
28028;SDS011;15345;59.364;18.016;2023-05-09T03:09:22;9.75;;;3.97;;
28028;SDS011;15345;59.364;18.016;2023-05-09T03:10:41;10.48;;;4.35;;
28028;SDS011;15345;59.364;18.016;2023-05-09T03:12:00;3.45;;;3.15;;
28028;SDS011;15345;59.364;18.016;2023-05-09T03:13:20;6.72;;;3.30;;
28028;SDS011;15345;59.364;18.016;2023-05-09T03:14:38;8.82;;;3.72;;
28028;SDS011;15345;59.364;18.016;2023-05-09T03:15:57;9.63;;;4.10;;
28028;SDS011;15345;59.364;18.016;2023-05-09T03:17:16;4.55;;;3.47;;
28028;SDS011;15345;59.364;18.016;2023-05-09T03:18:38;4.38;;;3.55;;
28028;SDS011;15345;59.364;18.016;2023-05-09T03:19:57;6.47;;;3.80;;
28028;SDS011;15345;59.364;18.016;2023-05-09T03:21:16;8.88;;;4.10;;
28028;SDS011;15345;59.364;18.016;2023-05-09T03:22:36;6.50;;;3.90;;
28028;SDS011;15345;59.364;18.016;2023-05-09T03:23:55;5.30;;;3.70;;
28028;SDS011;15345;59.364;18.016;2023-05-09T03:25:14;6.95;;;4.28;;
28028;SDS011;15345;59.364;18.016;2023-05-09T03:26:33;7.30;;;3.88;;
28028;SDS011;15345;59.364;18.016;2023-05-09T03:27:55;6.82;;;3.85;;
28028;SDS011;15345;59.364;18.016;2023-05-09T03:29:14;8.95;;;4.10;;
28028;SDS011;15345;59.364;18.016;2023-05-09T03:30:33;9.40;;;4.00;;
28028;SDS011;15345;59.364;18.016;2023-05-09T03:31:52;5.55;;;3.70;;
28028;SDS011;15345;59.364;18.016;2023-05-09T03:33:11;7.35;;;4.05;;
28028;SDS011;15345;59.364;18.016;2023-05-09T03:34:30;4.95;;;3.67;;
28028;SDS011;15345;59.364;18.016;2023-05-09T03:35:49;7.75;;;3.97;;
28028;SDS011;15345;59.364;18.016;2023-05-09T03:37:08;8.65;;;4.20;;
28028;SDS011;15345;59.364;18.016;2023-05-09T03:38:27;8.30;;;3.80;;
28028;SDS011;15345;59.364;18.016;2023-05-09T03:39:46;7.13;;;3.83;;
28028;SDS011;15345;59.364;18.016;2023-05-09T03:41:05;5.78;;;4.22;;
28028;SDS011;15345;59.364;18.016;2023-05-09T03:42:24;4.07;;;3.78;;
28028;SDS011;15345;59.364;18.016;2023-05-09T03:43:43;10.82;;;4.72;;
28028;SDS011;15345;59.364;18.016;2023-05-09T03:45:02;6.55;;;4.53;;
28028;SDS011;15345;59.364;18.016;2023-05-09T03:46:21;8.80;;;4.38;;
28028;SDS011;15345;59.364;18.016;2023-05-09T03:47:40;6.07;;;3.80;;
28028;SDS011;15345;59.364;18.016;2023-05-09T03:48:59;13.60;;;4.78;;
28028;SDS011;15345;59.364;18.016;2023-05-09T03:50:18;10.98;;;4.05;;
28028;SDS011;15345;59.364;18.016;2023-05-09T03:51:37;5.53;;;3.95;;
28028;SDS011;15345;59.364;18.016;2023-05-09T03:52:55;10.63;;;4.03;;
28028;SDS011;15345;59.364;18.016;2023-05-09T03:54:15;7.75;;;3.80;;
28028;SDS011;15345;59.364;18.016;2023-05-09T03:55:34;8.02;;;3.97;;
28028;SDS011;15345;59.364;18.016;2023-05-09T03:56:53;8.20;;;4.55;;
28028;SDS011;15345;59.364;18.016;2023-05-09T03:58:11;4.38;;;3.97;;
28028;SDS011;15345;59.364;18.016;2023-05-09T03:59:30;12.45;;;4.05;;
28028;SDS011;15345;59.364;18.016;2023-05-09T04:00:49;8.13;;;4.25;;
28028;SDS011;15345;59.364;18.016;2023-05-09T04:02:08;5.70;;;3.70;;
28028;SDS011;15345;59.364;18.016;2023-05-09T04:03:28;6.85;;;4.30;;
28028;SDS011;15345;59.364;18.016;2023-05-09T04:04:47;6.15;;;3.70;;
28028;SDS011;15345;59.364;18.016;2023-05-09T04:06:07;11.05;;;4.45;;
28028;SDS011;15345;59.364;18.016;2023-05-09T04:07:26;7.60;;;4.22;;
28028;SDS011;15345;59.364;18.016;2023-05-09T04:08:46;8.40;;;3.92;;
28028;SDS011;15345;59.364;18.016;2023-05-09T04:10:05;7.65;;;3.97;;
28028;SDS011;15345;59.364;18.016;2023-05-09T04:11:24;5.22;;;3.67;;
28028;SDS011;15345;59.364;18.016;2023-05-09T04:12:43;8.27;;;4.43;;
28028;SDS011;15345;59.364;18.016;2023-05-09T04:14:02;6.25;;;3.72;;
28028;SDS011;15345;59.364;18.016;2023-05-09T04:15:24;5.70;;;4.25;;
28028;SDS011;15345;59.364;18.016;2023-05-09T04:16:44;10.20;;;3.88;;
28028;SDS011;15345;59.364;18.016;2023-05-09T04:18:03;8.88;;;4.60;;
28028;SDS011;15345;59.364;18.016;2023-05-09T04:19:22;4.00;;;3.70;;
28028;SDS011;15345;59.364;18.016;2023-05-09T04:20:41;6.00;;;4.18;;
28028;SDS011;15345;59.364;18.016;2023-05-09T04:22:00;4.03;;;3.47;;
28028;SDS011;15345;59.364;18.016;2023-05-09T04:23:19;5.72;;;3.85;;
28028;SDS011;15345;59.364;18.016;2023-05-09T04:24:38;5.93;;;3.65;;
28028;SDS011;15345;59.364;18.016;2023-05-09T04:25:57;10.68;;;4.15;;
28028;SDS011;15345;59.364;18.016;2023-05-09T04:27:16;7.95;;;3.63;;
28028;SDS011;15345;59.364;18.016;2023-05-09T04:28:35;6.28;;;3.80;;
28028;SDS011;15345;59.364;18.016;2023-05-09T04:29:54;10.95;;;4.15;;
28028;SDS011;15345;59.364;18.016;2023-05-09T04:31:13;6.75;;;3.90;;
28028;SDS011;15345;59.364;18.016;2023-05-09T04:32:32;6.05;;;3.42;;
28028;SDS011;15345;59.364;18.016;2023-05-09T04:33:51;9.57;;;3.67;;
28028;SDS011;15345;59.364;18.016;2023-05-09T04:35:10;6.40;;;3.47;;
28028;SDS011;15345;59.364;18.016;2023-05-09T04:36:30;8.55;;;3.65;;
28028;SDS011;15345;59.364;18.016;2023-05-09T04:37:51;3.90;;;3.60;;
28028;SDS011;15345;59.364;18.016;2023-05-09T04:39:10;7.68;;;3.38;;
28028;SDS011;15345;59.364;18.016;2023-05-09T04:40:30;8.75;;;3.55;;
28028;SDS011;15345;59.364;18.016;2023-05-09T04:41:49;9.13;;;6.13;;
28028;SDS011;15345;59.364;18.016;2023-05-09T04:43:08;7.88;;;3.50;;
28028;SDS011;15345;59.364;18.016;2023-05-09T04:44:27;7.20;;;3.53;;
28028;SDS011;15345;59.364;18.016;2023-05-09T04:45:46;6.82;;;3.67;;
28028;SDS011;15345;59.364;18.016;2023-05-09T04:47:05;7.28;;;4.07;;
28028;SDS011;15345;59.364;18.016;2023-05-09T04:48:24;8.30;;;4.00;;
28028;SDS011;15345;59.364;18.016;2023-05-09T04:49:43;10.68;;;4.10;;
28028;SDS011;15345;59.364;18.016;2023-05-09T04:51:02;7.72;;;4.15;;
28028;SDS011;15345;59.364;18.016;2023-05-09T04:52:21;8.20;;;3.97;;
28028;SDS011;15345;59.364;18.016;2023-05-09T04:53:40;9.88;;;4.20;;
28028;SDS011;15345;59.364;18.016;2023-05-09T04:54:59;7.10;;;3.75;;
28028;SDS011;15345;59.364;18.016;2023-05-09T04:56:18;6.45;;;3.53;;
28028;SDS011;15345;59.364;18.016;2023-05-09T04:57:37;4.20;;;3.30;;
28028;SDS011;15345;59.364;18.016;2023-05-09T04:58:57;5.65;;;3.75;;
28028;SDS011;15345;59.364;18.016;2023-05-09T05:00:16;10.48;;;3.92;;
28028;SDS011;15345;59.364;18.016;2023-05-09T05:01:36;7.05;;;3.33;;
28028;SDS011;15345;59.364;18.016;2023-05-09T05:02:55;5.75;;;4.15;;
28028;SDS011;15345;59.364;18.016;2023-05-09T05:04:14;9.25;;;3.20;;
28028;SDS011;15345;59.364;18.016;2023-05-09T05:05:33;7.57;;;3.60;;
28028;SDS011;15345;59.364;18.016;2023-05-09T05:06:52;9.25;;;3.95;;
28028;SDS011;15345;59.364;18.016;2023-05-09T05:08:11;7.47;;;3.78;;
28028;SDS011;15345;59.364;18.016;2023-05-09T05:09:30;12.80;;;4.00;;
28028;SDS011;15345;59.364;18.016;2023-05-09T05:10:49;14.02;;;3.85;;
28028;SDS011;15345;59.364;18.016;2023-05-09T05:12:08;8.75;;;3.33;;
28028;SDS011;15345;59.364;18.016;2023-05-09T05:13:27;4.28;;;3.33;;
28028;SDS011;15345;59.364;18.016;2023-05-09T05:14:46;8.68;;;3.22;;
28028;SDS011;15345;59.364;18.016;2023-05-09T05:16:05;7.80;;;3.58;;
28028;SDS011;15345;59.364;18.016;2023-05-09T05:17:23;8.20;;;3.30;;
28028;SDS011;15345;59.364;18.016;2023-05-09T05:18:43;8.73;;;3.10;;
28028;SDS011;15345;59.364;18.016;2023-05-09T05:20:02;5.50;;;3.00;;
28028;SDS011;15345;59.364;18.016;2023-05-09T05:21:24;4.80;;;2.78;;
28028;SDS011;15345;59.364;18.016;2023-05-09T05:22:43;4.35;;;2.92;;
28028;SDS011;15345;59.364;18.016;2023-05-09T05:24:02;6.18;;;2.95;;
28028;SDS011;15345;59.364;18.016;2023-05-09T05:25:21;6.32;;;3.00;;
28028;SDS011;15345;59.364;18.016;2023-05-09T05:26:40;5.30;;;3.20;;
28028;SDS011;15345;59.364;18.016;2023-05-09T05:27:59;4.68;;;3.22;;
28028;SDS011;15345;59.364;18.016;2023-05-09T05:29:17;6.75;;;3.35;;
28028;SDS011;15345;59.364;18.016;2023-05-09T05:30:39;4.03;;;2.70;;
28028;SDS011;15345;59.364;18.016;2023-05-09T05:31:58;4.07;;;2.95;;
28028;SDS011;15345;59.364;18.016;2023-05-09T05:33:17;9.35;;;3.05;;
28028;SDS011;15345;59.364;18.016;2023-05-09T05:34:36;7.03;;;2.97;;
28028;SDS011;15345;59.364;18.016;2023-05-09T05:35:57;11.88;;;3.20;;
28028;SDS011;15345;59.364;18.016;2023-05-09T05:37:16;4.35;;;2.65;;
28028;SDS011;15345;59.364;18.016;2023-05-09T05:38:35;5.35;;;2.97;;
28028;SDS011;15345;59.364;18.016;2023-05-09T05:39:54;4.40;;;3.40;;
28028;SDS011;15345;59.364;18.016;2023-05-09T05:41:12;5.22;;;3.03;;
28028;SDS011;15345;59.364;18.016;2023-05-09T05:42:33;4.00;;;3.33;;
28028;SDS011;15345;59.364;18.016;2023-05-09T05:43:52;5.82;;;3.20;;
28028;SDS011;15345;59.364;18.016;2023-05-09T05:45:11;5.15;;;2.70;;
28028;SDS011;15345;59.364;18.016;2023-05-09T05:46:30;6.88;;;3.25;;
28028;SDS011;15345;59.364;18.016;2023-05-09T05:47:49;4.28;;;2.53;;
28028;SDS011;15345;59.364;18.016;2023-05-09T05:49:07;8.25;;;3.08;;
28028;SDS011;15345;59.364;18.016;2023-05-09T05:50:26;4.15;;;2.97;;
28028;SDS011;15345;59.364;18.016;2023-05-09T05:51:45;4.78;;;3.13;;
28028;SDS011;15345;59.364;18.016;2023-05-09T05:53:05;5.05;;;3.20;;
28028;SDS011;15345;59.364;18.016;2023-05-09T05:54:24;9.57;;;3.05;;
28028;SDS011;15345;59.364;18.016;2023-05-09T05:55:43;7.65;;;3.03;;
28028;SDS011;15345;59.364;18.016;2023-05-09T05:57:03;4.35;;;2.97;;
28028;SDS011;15345;59.364;18.016;2023-05-09T05:58:22;4.13;;;2.72;;
28028;SDS011;15345;59.364;18.016;2023-05-09T05:59:42;4.78;;;3.15;;
28028;SDS011;15345;59.364;18.016;2023-05-09T06:01:01;7.78;;;3.40;;
28028;SDS011;15345;59.364;18.016;2023-05-09T06:02:20;2.83;;;2.63;;
28028;SDS011;15345;59.364;18.016;2023-05-09T06:03:38;6.97;;;2.90;;
28028;SDS011;15345;59.364;18.016;2023-05-09T06:04:58;4.88;;;2.63;;
28028;SDS011;15345;59.364;18.016;2023-05-09T06:06:17;4.18;;;2.85;;
28028;SDS011;15345;59.364;18.016;2023-05-09T06:07:35;7.57;;;3.10;;
28028;SDS011;15345;59.364;18.016;2023-05-09T06:08:54;6.72;;;3.30;;
28028;SDS011;15345;59.364;18.016;2023-05-09T06:10:13;3.58;;;2.70;;
28028;SDS011;15345;59.364;18.016;2023-05-09T06:11:34;5.20;;;3.00;;
28028;SDS011;15345;59.364;18.016;2023-05-09T06:12:53;4.53;;;2.90;;
28028;SDS011;15345;59.364;18.016;2023-05-09T06:14:12;3.55;;;3.25;;
28028;SDS011;15345;59.364;18.016;2023-05-09T06:15:31;7.32;;;2.90;;
28028;SDS011;15345;59.364;18.016;2023-05-09T06:16:50;5.55;;;2.60;;
28028;SDS011;15345;59.364;18.016;2023-05-09T06:18:09;4.93;;;2.67;;
28028;SDS011;15345;59.364;18.016;2023-05-09T06:19:28;5.72;;;2.55;;
28028;SDS011;15345;59.364;18.016;2023-05-09T06:20:47;5.28;;;2.78;;
28028;SDS011;15345;59.364;18.016;2023-05-09T06:22:06;5.65;;;2.90;;
28028;SDS011;15345;59.364;18.016;2023-05-09T06:23:25;4.13;;;2.58;;
28028;SDS011;15345;59.364;18.016;2023-05-09T06:24:44;6.47;;;2.88;;
28028;SDS011;15345;59.364;18.016;2023-05-09T06:26:03;5.60;;;2.60;;
28028;SDS011;15345;59.364;18.016;2023-05-09T06:27:22;4.30;;;2.65;;
28028;SDS011;15345;59.364;18.016;2023-05-09T06:28:41;5.13;;;2.55;;
28028;SDS011;15345;59.364;18.016;2023-05-09T06:30:00;2.83;;;2.50;;
28028;SDS011;15345;59.364;18.016;2023-05-09T06:31:19;3.30;;;2.92;;
28028;SDS011;15345;59.364;18.016;2023-05-09T06:32:37;6.13;;;2.58;;
28028;SDS011;15345;59.364;18.016;2023-05-09T06:33:57;8.30;;;3.15;;
28028;SDS011;15345;59.364;18.016;2023-05-09T06:35:15;9.77;;;2.60;;
28028;SDS011;15345;59.364;18.016;2023-05-09T06:36:35;4.00;;;2.90;;
28028;SDS011;15345;59.364;18.016;2023-05-09T06:37:54;6.35;;;3.20;;
28028;SDS011;15345;59.364;18.016;2023-05-09T06:39:13;7.90;;;3.22;;
28028;SDS011;15345;59.364;18.016;2023-05-09T06:40:32;4.25;;;3.05;;
28028;SDS011;15345;59.364;18.016;2023-05-09T06:41:51;6.60;;;2.97;;
28028;SDS011;15345;59.364;18.016;2023-05-09T06:43:10;3.10;;;2.80;;
28028;SDS011;15345;59.364;18.016;2023-05-09T06:44:29;4.93;;;2.95;;
28028;SDS011;15345;59.364;18.016;2023-05-09T06:45:48;5.07;;;2.88;;
28028;SDS011;15345;59.364;18.016;2023-05-09T06:47:06;3.22;;;2.92;;
28028;SDS011;15345;59.364;18.016;2023-05-09T06:48:25;4.57;;;2.75;;
28028;SDS011;15345;59.364;18.016;2023-05-09T06:49:44;3.53;;;3.15;;
28028;SDS011;15345;59.364;18.016;2023-05-09T06:51:03;5.22;;;3.42;;
28028;SDS011;15345;59.364;18.016;2023-05-09T06:52:22;4.65;;;2.80;;
28028;SDS011;15345;59.364;18.016;2023-05-09T06:53:41;4.32;;;3.13;;
28028;SDS011;15345;59.364;18.016;2023-05-09T06:55:00;5.40;;;3.17;;
28028;SDS011;15345;59.364;18.016;2023-05-09T06:56:19;4.25;;;2.67;;
28028;SDS011;15345;59.364;18.016;2023-05-09T06:57:38;6.65;;;3.00;;
28028;SDS011;15345;59.364;18.016;2023-05-09T06:59:00;6.57;;;3.13;;
28028;SDS011;15345;59.364;18.016;2023-05-09T07:00:20;4.85;;;3.10;;
28028;SDS011;15345;59.364;18.016;2023-05-09T07:01:39;3.88;;;3.08;;
28028;SDS011;15345;59.364;18.016;2023-05-09T07:02:58;4.00;;;2.53;;
28028;SDS011;15345;59.364;18.016;2023-05-09T07:04:18;3.33;;;3.00;;
28028;SDS011;15345;59.364;18.016;2023-05-09T07:05:37;4.38;;;2.75;;
28028;SDS011;15345;59.364;18.016;2023-05-09T07:06:56;5.57;;;2.40;;
28028;SDS011;15345;59.364;18.016;2023-05-09T07:08:16;4.38;;;2.80;;
28028;SDS011;15345;59.364;18.016;2023-05-09T07:09:35;14.93;;;3.40;;
28028;SDS011;15345;59.364;18.016;2023-05-09T07:10:54;7.35;;;3.30;;
28028;SDS011;15345;59.364;18.016;2023-05-09T07:12:13;5.10;;;2.75;;
28028;SDS011;15345;59.364;18.016;2023-05-09T07:13:32;5.05;;;2.90;;
28028;SDS011;15345;59.364;18.016;2023-05-09T07:14:51;11.75;;;2.88;;
28028;SDS011;15345;59.364;18.016;2023-05-09T07:16:10;4.43;;;2.65;;
28028;SDS011;15345;59.364;18.016;2023-05-09T07:17:29;7.85;;;2.80;;
28028;SDS011;15345;59.364;18.016;2023-05-09T07:18:48;5.22;;;3.30;;
28028;SDS011;15345;59.364;18.016;2023-05-09T07:20:07;4.45;;;2.40;;
28028;SDS011;15345;59.364;18.016;2023-05-09T07:21:27;6.53;;;2.63;;
28028;SDS011;15345;59.364;18.016;2023-05-09T07:22:46;6.05;;;2.92;;
28028;SDS011;15345;59.364;18.016;2023-05-09T07:24:05;6.40;;;2.83;;
28028;SDS011;15345;59.364;18.016;2023-05-09T07:25:23;7.05;;;2.97;;
28028;SDS011;15345;59.364;18.016;2023-05-09T07:26:42;4.43;;;2.83;;
28028;SDS011;15345;59.364;18.016;2023-05-09T07:28:02;4.30;;;2.72;;
28028;SDS011;15345;59.364;18.016;2023-05-09T07:29:21;7.28;;;2.83;;
28028;SDS011;15345;59.364;18.016;2023-05-09T07:30:39;9.68;;;2.65;;
28028;SDS011;15345;59.364;18.016;2023-05-09T07:32:00;7.18;;;2.80;;
28028;SDS011;15345;59.364;18.016;2023-05-09T07:33:19;6.00;;;3.28;;
28028;SDS011;15345;59.364;18.016;2023-05-09T07:34:38;7.38;;;2.88;;
28028;SDS011;15345;59.364;18.016;2023-05-09T07:35:57;5.85;;;2.72;;
28028;SDS011;15345;59.364;18.016;2023-05-09T07:37:16;9.05;;;2.88;;
28028;SDS011;15345;59.364;18.016;2023-05-09T07:38:36;6.88;;;2.75;;
28028;SDS011;15345;59.364;18.016;2023-05-09T07:39:55;7.07;;;2.80;;
28028;SDS011;15345;59.364;18.016;2023-05-09T07:41:14;5.40;;;3.15;;
28028;SDS011;15345;59.364;18.016;2023-05-09T07:42:33;2.90;;;2.70;;
28028;SDS011;15345;59.364;18.016;2023-05-09T07:43:52;4.38;;;2.95;;
28028;SDS011;15345;59.364;18.016;2023-05-09T07:45:11;5.47;;;2.85;;
28028;SDS011;15345;59.364;18.016;2023-05-09T07:46:30;5.85;;;2.47;;
28028;SDS011;15345;59.364;18.016;2023-05-09T07:47:49;3.60;;;2.65;;
28028;SDS011;15345;59.364;18.016;2023-05-09T07:49:08;4.78;;;2.67;;
28028;SDS011;15345;59.364;18.016;2023-05-09T07:50:27;4.30;;;3.08;;
28028;SDS011;15345;59.364;18.016;2023-05-09T07:51:46;3.05;;;2.53;;
28028;SDS011;15345;59.364;18.016;2023-05-09T07:53:05;4.07;;;2.53;;
28028;SDS011;15345;59.364;18.016;2023-05-09T07:54:24;7.57;;;2.95;;
28028;SDS011;15345;59.364;18.016;2023-05-09T07:55:43;7.07;;;2.50;;
28028;SDS011;15345;59.364;18.016;2023-05-09T07:57:05;2.90;;;2.40;;
28028;SDS011;15345;59.364;18.016;2023-05-09T07:58:24;5.20;;;2.42;;
28028;SDS011;15345;59.364;18.016;2023-05-09T07:59:43;3.92;;;2.30;;
28028;SDS011;15345;59.364;18.016;2023-05-09T08:01:02;4.35;;;2.70;;
28028;SDS011;15345;59.364;18.016;2023-05-09T08:02:21;5.63;;;2.80;;
28028;SDS011;15345;59.364;18.016;2023-05-09T08:03:40;3.38;;;2.55;;